Fort Shafter, HI (96858)

6:00 AM HST on September 30, 2016 (GMT -1000)
Honolulu Harbor Pier 35 | | Change Station

Elev 0 ft 21.32 °N, 157.88 °W | Updated 13 seconds ago

Scattered Clouds
Scattered Clouds
77.4 °F
Feels Like 79 °F
N
6.0
Wind Variable Wind from NE
Gusts 20.0 mph

Today
High -- | Low -- °F
--% Chance of Precip.
Yesterday
High -- | Low -- °F
Precip. -- in
Pressure 30.03 in
Visibility 10.0 miles
Clouds Few 3300 ft
Scattered Clouds 5000 ft
Heat Index 79 °F
Dew Point 69 °F
Humidity 75%
Rainfall 0.00 in
Snow Depth Not available.
6:22 AM 6:19 PM
Waning Crescent, 0% visible
METAR PHNL 301553Z 06014KT 10SM FEW033 SCT050 24/19 A3003 RMK AO2 RAB16E25 SLP169 P0000 T02440194
Pressure 30.03 in
Visibility 10.0 miles
Clouds Few 3300 ft
Scattered Clouds 5000 ft
Heat Index 79 °F
Dew Point 69 °F
Humidity 75%
Rainfall 0.00 in
Snow Depth Not available.
6:22 AM 6:19 PM
Waning Crescent, 0% visible
METAR PHNL 301553Z 06014KT 10SM FEW033 SCT050 24/19 A3003 RMK AO2 RAB16E25 SLP169 P0000 T02440194

10-Day Weather Forecast

Almanac

Astronomy

Sep. 30, 2016 Rise Set
Actual Time
Civil Twilight
Nautical Twilight
Astronomical Twilight
Moon
Length of Visible Light
Length of Day
Tomorrow will be .
, % of the Moon is Illuminated

Today's Extremes

State Highs State Lows

Community

WunderPhotos

Upload Photos

1,942,739 photos uploaded!

WunderBlog® & News

Nearby

Air Quality

  Air Quality AQ Index Pollutant
Not available.

Snow Depth

Station Depth Elevation

Earthquake Activity

City Distance Mag. Time & Date
Minimum magnitude displayed is 2.5.

Coastal Water Temperatures

Place Temperature

Stations

Nearby Weather Stations

Station Location Temp. Windchill Dew Point Humidity Wind Precip. Elev Updated Type
                   

Watches & Warnings

There are currently no watches in effect.